Punkin Center, Colorado
Current Conditions -  °F | °C
As of 9:53 PM on Tuesday 21 Oct 2014 (Local Time) from KLHX Reporting Station
Clear Clear  
Wind Chill: 65°   Ceiling: Unl
Heat Index: 65°   Visibility: 10mi
Dew Point: 47°   Wind: 14mph
Humidity: 52%   Direction: 190°S
Pressure: 29.94"   Gusts: NA
Location:  38.363°N, 103.799°W
Report Text: KLHX 220353Z AUTO 19012KT 10SM CLR 18/08 A2994 RMK AO2 SLP092 T01830083
Loading
Personal Weather Stations






























Interactive Weather Map
Tropical Storm Tracking
New forecast layout! Learn more

10-Day Weather Forecast

Advertisements
Track Severe Weather on mobile